Meteo Giornale » Osservazioni meteo Tunisia » Tozeur
ore: 20:00 - Osservazioni Meteo Tozeur
Lat. 33° 55' N Lon. 8° 6' E Alt. 87 metri s.l.m.
38 °C
Sereno
Temp. 24 Ore
0 °C
43 °C
Est
14.8 Km/h
Dew point 11 °C
Umidità 19 %
Visibilità 10 Km
Il sole sorge alle ore 06:01
Il sole tramonta alle ore 18:53
| Data e Ora | Cielo e Fenomeni | T °C | DP °C | Um. % | Pres. hPa | Vis. km | Vento km/h | |
|---|---|---|---|---|---|---|---|---|
| Oggi h: 20:00 | Sereno | 38 | 11 | 19 | 1015 | 10 | E 14.8 | |
| Oggi h: 19:00 | Sereno | 39 | 16 | 26 | 1015 | 10 | NE 20.3 | |
| Oggi h: 18:00 | Sereno | 40 | 12 | 19 | 1014 | 10 | E/NE 29.6 | |
| Oggi h: 17:00 | Sereno | 43 | 16 | 21 | 1014 | 10 | E/NE 20.3 | |
| Oggi h: 16:00 | Sereno | 0 | 0 | 52 | 1014 | 10 | E/NE 16.7 | |
| Oggi h: 15:00 | Sereno | 43 | 14 | 18 | 1015 | 10 | E 16.7 | |
| Oggi h: 14:00 | Sereno | 43 | 14 | 18 | 1015 | 10 | E 20.3 | |
| Oggi h: 13:00 | Sereno | 42 | 16 | 22 | 1016 | 10 | E 18.5 | |
| Oggi h: 12:00 | Sereno | 40 | 17 | 26 | 1016 | 10 | E/SE 22.2 | |
| Oggi h: 11:00 | Sereno | 38 | 17 | 29 | 1017 | 10 | E/SE 18.5 | |
| Oggi h: 10:00 | Sereno | 37 | 20 | 37 | 1017 | 10 | E 22.2 | |
| Oggi h: 09:00 | Sereno | 35 | 20 | 41 | 1016 | 10 | E 20.3 | |
| Oggi h: 08:00 | Sereno | 33 | 23 | 55 | 1016 | 11 | E/SE 14.8 | |
| Oggi h: 07:00 | Sereno | 32 | 24 | 62 | 1016 | 11 | E/SE 11.1 | |
| Oggi h: 06:00 | Sereno | 31 | 24 | 66 | 1015 | 11 | N 5.5 | |
| Oggi h: 05:00 | Sereno | 31 | 24 | 66 | 1015 | 10 | E 13 | |
| Oggi h: 04:00 | Sereno | 32 | 19 | 46 | 1015 | 10 | E 13 | |
| Oggi h: 03:00 | Sereno | 34 | 12 | 26 | 1015 | 10 | E 11.1 | |
| Oggi h: 02:00 | Sereno | 34 | 10 | 23 | 1015 | 10 | E/SE 11.1 | |
| Oggi h: 01:00 | Sereno | 36 | 10 | 20 | 1016 | 10 | E 18.5 | |
| Oggi h: 00:00 | Sereno | 36 | 9 | 19 | 1016 | 0 | NE 27.8 | |
| Ieri h: 23:00 | Sereno | 36 | 10 | 20 | 1016 | 0 | NE 25.9 | |
| Ieri h: 22:00 | Sereno | 0 | 0 | 62 | 1016 | 0 | N/NE 42.6 | |
| Ieri h: 21:00 | Sereno | 39 | 8 | 15 | 1015 | 0 | N/NE 31.5 | |



